Time;durP1;ratioP1;P1;durP2;ratioP2;P2;SDS_P1;SDS_P2;PMS_P1;PMS_P2;Temp;Humidity;BMP_temperature;BMP_pressure;BME280_temperature;BME280_humidity;BME280_pressure;Samples;Min_cycle;Max_cycle;Signal;HPM_P1;HPM_P2
2022/06/22 00:02:17;;;;;;;;;;;;;;;20.12;38.23;100083.78;5402766;32;34239;-79
2022/06/22 00:05:38;;;;;;;;;;;;;;;20.16;38.29;100073.72;5405621;32;33157;-72
2022/06/22 00:08:46;;;;;;;;;;;;;;;19.87;39.18;100066.31;5401283;32;45203;-78
2022/06/22 00:11:48;;;;;;;;;;;;;;;19.72;39.62;100051.59;5404260;32;33724;-78
2022/06/22 00:14:50;;;;;;;;;;;;;;;20.28;38.54;100064.66;5390455;32;34127;-73
2022/06/22 00:17:52;;;;;;;;;;;;;;;21.55;36.02;100064.31;5391267;32;36123;-74
2022/06/22 00:20:55;;;;;;;;;;;;;;;20.48;37.79;100055.84;5425652;32;34299;-72
2022/06/22 00:23:58;;;;;;;;;;;;;;;20.07;39.02;100070.00;5404395;32;34610;-73
2022/06/22 00:27:11;;;;;;;;;;;;;;;20.88;37.51;100068.44;5414011;32;36123;-79
2022/06/22 00:30:19;;;;;;;;;;;;;;;21.62;35.99;100074.31;5411521;32;45112;-71
2022/06/22 00:33:22;;;;;;;;;;;;;;;20.41;38.27;100084.00;5398854;32;34189;-78
2022/06/22 00:36:24;;;;;;;;;;;;;;;20.23;38.83;100077.56;5414734;32;34419;-80
2022/06/22 00:39:26;;;;;;;;;;;;;;;20.07;39.05;100077.16;5409967;32;35411;-80
2022/06/22 00:42:28;;;;;;;;;;;;;;;20.08;39.43;100068.16;5418128;32;35552;-78
2022/06/22 00:45:30;;;;;;;;;;;;;;;20.85;37.65;100065.16;5398979;32;35397;-72
2022/06/22 00:48:33;;;;;;;;;;;;;;;21.13;37.65;100071.63;5416433;32;34423;-78
2022/06/22 00:51:36;;;;;;;;;;;;;;;21.69;36.68;100068.41;5398969;32;34371;-80
2022/06/22 00:54:39;;;;;;;;;;;;;;;21.04;37.73;100060.75;5410477;32;42389;-74
2022/06/22 00:57:41;;;;;;;;;;;;;;;20.12;39.25;100078.47;5416668;32;35270;-74
2022/06/22 01:00:45;;;;;;;;;;;;;;;20.78;38.00;100070.19;5408130;32;34413;-80
2022/06/22 01:03:54;;;;;;;;;;;;;;;20.92;38.20;100069.84;5415815;32;34599;-78
2022/06/22 01:06:57;;;;;;;;;;;;;;;19.83;40.04;100048.00;5401264;32;34286;-79
2022/06/22 01:10:05;;;;;;;;;;;;;;;20.39;38.75;100066.44;5412740;32;34108;-78
2022/06/22 01:13:08;;;;;;;;;;;;;;;20.39;38.70;100063.75;5406622;32;43368;-78
2022/06/22 01:16:18;;;;;;;;;;;;;;;20.50;39.01;100069.06;5376703;32;34251;-78
2022/06/22 01:19:31;;;;;;;;;;;;;;;20.52;39.00;100067.09;5430165;32;34274;-73
2022/06/22 01:22:52;;;;;;;;;;;;;;;20.81;38.38;100076.12;5407182;32;34192;-74
2022/06/22 01:25:54;;;;;;;;;;;;;;;21.30;37.33;100073.66;5412977;32;35622;-73
2022/06/22 01:29:00;;;;;;;;;;;;;;;21.03;37.68;100066.25;5408975;32;34350;-73
2022/06/22 01:32:03;;;;;;;;;;;;;;;21.21;37.24;100069.12;5406048;32;34455;-79
2022/06/22 01:35:15;;;;;;;;;;;;;;;21.02;37.43;100068.06;5418200;32;34325;-79
2022/06/22 01:38:22;;;;;;;;;;;;;;;20.26;39.49;100069.28;5396904;32;44418;-72
2022/06/22 01:41:33;;;;;;;;;;;;;;;20.98;38.74;100058.63;5422506;32;35610;-72
2022/06/22 01:44:52;;;;;;;;;;;;;;;20.99;38.81;100062.12;5404243;32;34453;-79
2022/06/22 01:47:55;;;;;;;;;;;;;;;20.69;39.21;100065.66;5405322;32;34218;-78
2022/06/22 01:51:05;;;;;;;;;;;;;;;20.28;40.65;100067.31;5424153;32;34348;-78
2022/06/22 01:54:12;;;;;;;;;;;;;;;21.14;39.26;100052.78;5405627;32;46861;-78
2022/06/22 01:57:16;;;;;;;;;;;;;;;21.03;38.81;100031.50;5415219;32;35716;-73
2022/06/22 02:00:19;;;;;;;;;;;;;;;20.74;39.61;100055.44;5415885;32;34289;-72
2022/06/22 02:03:28;;;;;;;;;;;;;;;21.01;38.53;100066.38;5409663;32;36385;-78
2022/06/22 02:10:26;;;;;;;;;;;;;;;21.18;38.16;100072.06;5401693;32;34412;-80
2022/06/22 02:13:28;;;;;;;;;;;;;;;20.71;39.58;100067.22;5411124;32;34704;-79
2022/06/22 02:16:35;;;;;;;;;;;;;;;20.68;40.55;100063.97;5380520;32;35491;-73
2022/06/22 02:19:37;;;;;;;;;;;;;;;20.76;40.10;100069.50;5411960;32;43322;-79
2022/06/22 02:22:39;;;;;;;;;;;;;;;21.13;39.01;100072.47;5417828;32;35442;-79
2022/06/22 02:25:47;;;;;;;;;;;;;;;20.39;40.43;100088.63;5392312;32;36278;-73
2022/06/22 02:28:49;;;;;;;;;;;;;;;20.05;40.58;100092.44;5422209;32;34319;-79
2022/06/22 02:31:53;;;;;;;;;;;;;;;19.83;40.12;100088.88;5398303;32;34288;-77
2022/06/22 02:34:55;;;;;;;;;;;;;;;20.95;37.30;100101.66;5419593;32;35399;-78
2022/06/22 02:38:00;;;;;;;;;;;;;;;21.29;36.28;100096.88;5409616;32;36426;-78
2022/06/22 02:44:30;;;;;;;;;;;;;;;20.82;37.29;100099.19;5418342;32;34369;-71
2022/06/22 02:47:47;;;;;;;;;;;;;;;19.97;38.85;100093.09;5401760;32;35481;-74
2022/06/22 02:50:51;;;;;;;;;;;;;;;20.15;38.47;100096.03;5406628;32;34428;-73
2022/06/22 02:53:54;;;;;;;;;;;;;;;19.71;39.18;100104.06;5415142;32;35663;-78
2022/06/22 02:56:59;;;;;;;;;;;;;;;19.94;39.01;100098.66;5402993;32;35688;-73
2022/06/22 03:00:00;;;;;;;;;;;;;;;20.32;38.29;100113.28;5428043;32;34368;-73
2022/06/22 03:03:12;;;;;;;;;;;;;;;20.62;37.24;100116.09;5403876;32;34358;-78
2022/06/22 03:06:14;;;;;;;;;;;;;;;20.27;37.93;100121.69;5401877;32;44556;-77
2022/06/22 03:09:16;;;;;;;;;;;;;;;19.82;38.89;100121.00;5407202;32;34224;-78
2022/06/22 03:12:18;;;;;;;;;;;;;;;20.07;38.50;100114.50;5399794;32;35369;-78
2022/06/22 03:15:21;;;;;;;;;;;;;;;20.71;37.36;100114.44;5394065;32;34499;-73
2022/06/22 03:18:26;;;;;;;;;;;;;;;20.68;37.35;100115.56;5401868;32;35933;-78
2022/06/22 03:21:28;;;;;;;;;;;;;;;20.75;37.20;100115.88;5423705;32;36440;-73
2022/06/22 03:24:40;;;;;;;;;;;;;;;20.36;37.90;100123.59;5407172;32;34270;-78
2022/06/22 03:27:44;;;;;;;;;;;;;;;20.76;37.07;100130.91;5415790;32;44939;-72
2022/06/22 03:30:47;;;;;;;;;;;;;;;20.28;38.27;100134.03;5415895;32;35719;-77
2022/06/22 03:33:53;;;;;;;;;;;;;;;20.68;37.47;100133.41;5413288;32;34520;-78
2022/06/22 03:37:07;;;;;;;;;;;;;;;20.12;38.71;100134.47;5424739;32;34771;-72
2022/06/22 03:40:13;;;;;;;;;;;;;;;21.10;37.14;100128.84;5400121;32;44575;-73
2022/06/22 03:43:18;;;;;;;;;;;;;;;20.76;37.67;100123.75;5420434;32;34202;-73
2022/06/22 03:46:25;;;;;;;;;;;;;;;21.27;36.90;100132.72;5404901;32;33445;-78
2022/06/22 03:49:31;;;;;;;;;;;;;;;20.74;37.56;100104.34;5396623;32;35025;-78
2022/06/22 03:52:39;;;;;;;;;;;;;;;21.78;36.23;100127.28;5415240;32;34405;-73
2022/06/22 03:55:42;;;;;;;;;;;;;;;21.60;36.64;100124.41;5406907;32;44541;-78
2022/06/22 03:58:45;;;;;;;;;;;;;;;21.11;37.69;100101.13;5419528;32;34252;-74
2022/06/22 04:01:47;;;;;;;;;;;;;;;21.75;36.62;100099.94;5404735;32;34237;-75
2022/06/22 04:04:50;;;;;;;;;;;;;;;21.41;37.54;100096.78;5415649;32;34297;-79
2022/06/22 04:07:52;;;;;;;;;;;;;;;21.21;38.27;100096.69;5404469;32;34232;-77
2022/06/22 04:10:58;;;;;;;;;;;;;;;21.69;37.33;100079.94;5406807;32;34281;-73
2022/06/22 04:14:02;;;;;;;;;;;;;;;21.26;38.73;100075.75;5405041;32;34364;-72
2022/06/22 04:17:05;;;;;;;;;;;;;;;21.72;39.81;100068.16;5382730;32;36866;-72
2022/06/22 04:20:17;;;;;;;;;;;;;;;21.68;40.41;100069.41;5418875;32;44524;-72
2022/06/22 04:23:21;;;;;;;;;;;;;;;21.83;40.04;100060.84;5386775;32;34275;-72
2022/06/22 04:26:28;;;;;;;;;;;;;;;21.76;39.93;100061.50;5391879;32;34353;-73
2022/06/22 04:29:41;;;;;;;;;;;;;;;22.24;38.76;100047.34;5428283;32;35416;-73
2022/06/22 04:32:44;;;;;;;;;;;;;;;23.13;37.00;100062.03;5401873;32;43007;-78
2022/06/22 04:35:49;;;;;;;;;;;;;;;22.86;37.11;100064.63;5424153;32;36437;-72
2022/06/22 04:38:53;;;;;;;;;;;;;;;23.76;35.19;100064.81;5400486;32;34292;-74
2022/06/22 04:41:55;;;;;;;;;;;;;;;24.29;33.64;100077.34;5418028;32;34257;-74
2022/06/22 04:44:57;;;;;;;;;;;;;;;22.76;36.77;100083.44;5406149;32;34614;-73
2022/06/22 04:48:14;;;;;;;;;;;;;;;23.16;35.38;100075.13;5402875;32;34259;-80
2022/06/22 04:51:17;;;;;;;;;;;;;;;24.07;34.05;100085.88;5417102;32;44617;-78
2022/06/22 04:54:27;;;;;;;;;;;;;;;24.01;33.96;100089.16;5413480;32;36064;-73
2022/06/22 04:57:31;;;;;;;;;;;;;;;24.60;32.39;100090.34;5421896;32;34946;-72
2022/06/22 05:00:34;;;;;;;;;;;;;;;25.41;31.00;100078.38;5409783;32;34419;-78
2022/06/22 05:03:36;;;;;;;;;;;;;;;26.24;30.17;100086.47;5405172;32;34391;-73
2022/06/22 05:07:04;;;;;;;;;;;;;;;26.49;29.42;100084.66;5415124;32;44096;-79
2022/06/22 05:10:07;;;;;;;;;;;;;;;27.01;28.41;100085.03;5388479;32;34177;-80
2022/06/22 05:13:16;;;;;;;;;;;;;;;26.19;29.60;100097.75;5419017;32;43531;-74
2022/06/22 05:16:20;;;;;;;;;;;;;;;26.30;29.28;100108.19;5376794;32;34275;-78
2022/06/22 05:19:23;;;;;;;;;;;;;;;26.71;29.26;100118.97;5408448;32;34266;-81
2022/06/22 05:22:25;;;;;;;;;;;;;;;26.41;29.39;100107.91;5416265;32;34656;-81
2022/06/22 05:25:27;;;;;;;;;;;;;;;26.26;29.51;100120.31;5402633;32;36273;-79
2022/06/22 05:28:29;;;;;;;;;;;;;;;26.20;29.41;100126.34;5422181;32;34202;-79
2022/06/22 05:31:32;;;;;;;;;;;;;;;27.04;28.28;100119.75;5397785;32;34238;-79
2022/06/22 05:34:36;;;;;;;;;;;;;;;28.91;25.81;100114.22;5419816;32;34242;-75
2022/06/22 05:37:39;;;;;;;;;;;;;;;28.37;26.02;100119.81;5400123;32;44923;-75
2022/06/22 05:40:42;;;;;;;;;;;;;;;28.72;25.02;100115.59;5409207;32;36782;-76
2022/06/22 05:43:44;;;;;;;;;;;;;;;26.40;28.69;100118.81;5428033;32;34272;-75
2022/06/22 05:46:51;;;;;;;;;;;;;;;26.99;27.78;100116.75;5401840;32;35447;-74
2022/06/22 05:49:53;;;;;;;;;;;;;;;26.45;28.29;100133.47;5410237;32;34944;-78
2022/06/22 05:52:54;;;;;;;;;;;;;;;28.15;26.07;100118.78;5391318;32;34319;-71
2022/06/22 05:56:09;;;;;;;;;;;;;;;27.48;26.39;100135.47;5415030;32;35840;-72
2022/06/22 05:59:21;;;;;;;;;;;;;;;28.55;25.07;100136.53;5404465;32;46030;-75
2022/06/22 06:02:23;;;;;;;;;;;;;;;29.43;23.16;100119.53;5403776;32;34602;-71
2022/06/22 06:05:40;;;;;;;;;;;;;;;29.19;23.31;100125.28;5415959;32;34334;-68
2022/06/22 06:08:46;;;;;;;;;;;;;;;27.40;24.89;100132.81;5370360;32;44434;-69
2022/06/22 06:11:58;;;;;;;;;;;;;;;27.48;25.15;100138.16;5409124;32;34558;-74
2022/06/22 06:15:02;;;;;;;;;;;;;;;26.58;27.00;100138.34;5384403;32;35669;-69
2022/06/22 06:18:04;;;;;;;;;;;;;;;26.75;26.38;100138.34;5398183;32;34484;-70
2022/06/22 06:21:06;;;;;;;;;;;;;;;26.58;25.75;100140.22;5409372;32;34219;-69
2022/06/22 06:24:22;;;;;;;;;;;;;;;28.14;24.07;100139.50;5397228;32;47358;-73
2022/06/22 06:27:34;;;;;;;;;;;;;;;28.39;23.07;100142.91;5411018;32;35636;-73
2022/06/22 06:30:47;;;;;;;;;;;;;;;26.97;25.16;100146.56;5397009;32;44704;-75
2022/06/22 06:33:49;;;;;;;;;;;;;;;26.30;26.61;100145.91;5402619;32;34327;-72
2022/06/22 06:37:02;;;;;;;;;;;;;;;26.55;25.55;100143.25;5412202;32;34335;-68
2022/06/22 06:40:04;;;;;;;;;;;;;;;25.35;27.25;100147.97;5399570;32;34407;-72
2022/06/22 06:43:18;;;;;;;;;;;;;;;25.80;27.33;100143.28;5413308;32;34146;-70
2022/06/22 06:46:34;;;;;;;;;;;;;;;26.38;26.80;100142.37;5398246;32;35835;-69
2022/06/22 06:49:41;;;;;;;;;;;;;;;27.17;25.55;100147.03;5396436;32;34867;-70
2022/06/22 06:53:02;;;;;;;;;;;;;;;24.87;28.65;100147.66;5405526;32;44640;-71
2022/06/22 06:56:06;;;;;;;;;;;;;;;24.56;29.85;100159.69;5396105;32;35083;-71
2022/06/22 06:59:12;;;;;;;;;;;;;;;25.00;27.83;100150.78;5409350;32;44014;-71
2022/06/22 07:02:17;;;;;;;;;;;;;;;25.89;27.47;100137.78;5396226;32;34314;-71
2022/06/22 07:05:20;;;;;;;;;;;;;;;26.46;26.72;100135.16;5402225;32;34383;-69
2022/06/22 07:08:35;;;;;;;;;;;;;;;28.53;24.19;100133.16;5411485;32;34422;-74
2022/06/22 07:11:48;;;;;;;;;;;;;;;29.37;23.31;100136.56;5396610;32;46715;-66
2022/06/22 07:14:50;;;;;;;;;;;;;;;29.06;23.91;100129.47;5395092;32;34402;-73
2022/06/22 07:17:53;;;;;;;;;;;;;;;29.32;23.14;100115.47;5391044;32;35767;-72
2022/06/22 07:21:15;;;;;;;;;;;;;;;29.45;22.76;100112.09;5393931;32;34962;-70
2022/06/22 07:24:37;;;;;;;;;;;;;;;27.13;26.01;100121.44;5409142;32;33068;-71
2022/06/22 07:27:40;;;;;;;;;;;;;;;26.36;27.32;100133.62;5367951;32;866904;-70
2022/06/22 07:30:47;;;;;;;;;;;;;;;27.69;25.94;100118.69;5403907;32;34404;-69
2022/06/22 07:33:51;;;;;;;;;;;;;;;29.05;23.86;100103.44;5400394;32;34737;-70
2022/06/22 07:36:57;;;;;;;;;;;;;;;29.57;23.35;100091.66;5406519;32;34590;-69
2022/06/22 07:40:13;;;;;;;;;;;;;;;29.49;23.63;100118.78;5371830;32;34138;-70
2022/06/22 07:43:15;;;;;;;;;;;;;;;29.06;24.01;100120.53;5343608;32;44654;-71
2022/06/22 07:46:33;;;;;;;;;;;;;;;30.79;21.81;100101.63;5369865;32;33719;-72
2022/06/22 07:49:39;;;;;;;;;;;;;;;29.29;23.59;100082.50;5354073;32;34591;-72
2022/06/22 07:52:46;;;;;;;;;;;;;;;30.76;21.89;100102.00;5366111;32;45246;-75
2022/06/22 07:55:48;;;;;;;;;;;;;;;29.18;23.49;100101.97;5363626;32;34097;-71
2022/06/22 07:59:01;;;;;;;;;;;;;;;29.32;23.64;100101.09;5357539;32;34412;-70
2022/06/22 08:02:05;;;;;;;;;;;;;;;30.35;22.70;100095.41;5370686;32;35463;-72
2022/06/22 08:05:10;;;;;;;;;;;;;;;29.70;23.16;100096.41;5361826;32;45056;-70
2022/06/22 08:08:18;;;;;;;;;;;;;;;32.68;19.75;100094.53;5363524;32;35494;-71
2022/06/22 08:11:32;;;;;;;;;;;;;;;31.41;20.75;100081.72;5356716;32;36349;-69
2022/06/22 08:14:42;;;;;;;;;;;;;;;30.44;21.41;100087.97;5344953;32;44493;-69
2022/06/22 08:17:48;;;;;;;;;;;;;;;31.67;20.49;100075.53;5356673;32;34547;-68
2022/06/22 08:20:51;;;;;;;;;;;;;;;32.24;20.00;100088.63;5360470;32;34550;-78
2022/06/22 08:23:53;;;;;;;;;;;;;;;33.68;18.03;100060.50;5365808;32;34227;-70
2022/06/22 08:26:56;;;;;;;;;;;;;;;31.00;20.63;100077.13;5362405;32;35233;-75
2022/06/22 08:29:58;;;;;;;;;;;;;;;32.70;18.83;100079.66;5356320;32;35229;-71
2022/06/22 08:33:07;;;;;;;;;;;;;;;32.66;18.46;100078.44;5366770;32;34697;-70
2022/06/22 08:36:11;;;;;;;;;;;;;;;33.30;18.32;100074.09;5345821;32;44570;-71
2022/06/22 08:39:13;;;;;;;;;;;;;;;31.93;18.62;100066.66;5360094;32;37285;-69
2022/06/22 08:42:22;;;;;;;;;;;;;;;33.22;17.70;100072.44;5362647;32;35554;-70
2022/06/22 08:45:36;;;;;;;;;;;;;;;33.38;17.51;100050.16;5374768;32;35541;-73
2022/06/22 08:48:53;;;;;;;;;;;;;;;31.30;17.98;100071.44;5366640;32;44232;-78
2022/06/22 08:52:10;;;;;;;;;;;;;;;30.88;19.15;100070.56;5361682;32;34355;-77
2022/06/22 08:55:15;;;;;;;;;;;;;;;31.74;18.02;100063.66;5375289;32;46642;-80
2022/06/22 08:58:29;;;;;;;;;;;;;;;34.80;15.56;100067.03;5364566;32;34418;-72
2022/06/22 09:01:40;;;;;;;;;;;;;;;34.05;14.74;100066.19;5363850;32;35800;-77
2022/06/22 09:04:54;;;;;;;;;;;;;;;33.00;15.30;100082.78;5365118;32;44835;-78
2022/06/22 09:08:11;;;;;;;;;;;;;;;34.17;14.28;100062.50;5356601;32;35560;-81
2022/06/22 09:11:20;;;;;;;;;;;;;;;34.52;14.62;100074.84;5373604;32;44436;-75
2022/06/22 09:14:41;;;;;;;;;;;;;;;35.10;14.46;100069.00;5353199;32;34181;-75
2022/06/22 09:17:43;;;;;;;;;;;;;;;35.45;14.21;100056.44;5360632;32;44563;-78
2022/06/22 09:20:45;;;;;;;;;;;;;;;32.51;16.38;100069.62;5371108;32;34671;-76
2022/06/22 09:24:06;;;;;;;;;;;;;;;33.77;15.04;100072.84;5366121;32;34275;-74
2022/06/22 09:27:08;;;;;;;;;;;;;;;33.50;14.64;100061.25;5373831;32;44502;-71
2022/06/22 09:30:17;;;;;;;;;;;;;;;33.10;15.16;100055.09;5359623;32;34413;-79
2022/06/22 09:33:26;;;;;;;;;;;;;;;31.93;16.48;100061.22;5375841;32;34424;-77
2022/06/22 09:36:41;;;;;;;;;;;;;;;33.62;15.17;100055.94;5367885;32;34447;-74
2022/06/22 09:39:50;;;;;;;;;;;;;;;34.29;14.44;100053.63;5348716;32;44628;-76
2022/06/22 09:42:54;;;;;;;;;;;;;;;33.37;15.23;100051.22;5366918;32;34306;-76
2022/06/22 09:46:03;;;;;;;;;;;;;;;32.39;16.35;100044.13;5366362;32;34413;-76
2022/06/22 09:49:15;;;;;;;;;;;;;;;33.44;15.50;100037.59;5374917;32;35490;-75
2022/06/22 09:52:29;;;;;;;;;;;;;;;36.06;12.92;100036.19;5361799;32;34393;-71
2022/06/22 09:59:11;;;;;;;;;;;;;;;33.93;14.70;100042.34;5377470;32;35633;-80
2022/06/22 10:02:24;;;;;;;;;;;;;;;35.21;13.63;100035.47;5360246;32;44621;-87
2022/06/22 10:05:50;;;;;;;;;;;;;;;34.77;13.37;100025.69;5372885;32;36928;-81
2022/06/22 10:08:59;;;;;;;;;;;;;;;34.69;13.31;100030.37;5384720;32;35951;-87
2022/06/22 10:12:10;;;;;;;;;;;;;;;36.03;12.43;100024.91;5358729;32;34831;-82
2022/06/22 10:15:26;;;;;;;;;;;;;;;34.25;13.77;100025.94;5355883;32;35440;-81
2022/06/22 10:22:23;;;;;;;;;;;;;;;34.92;13.40;100029.75;5279896;32;34909;-80
2022/06/22 10:25:44;;;;;;;;;;;;;;;35.99;12.39;100021.78;5347653;32;36118;-77
2022/06/22 10:28:58;;;;;;;;;;;;;;;38.10;10.78;100021.34;5358968;32;44480;-79
2022/06/22 10:32:03;;;;;;;;;;;;;;;36.82;11.66;100022.66;5373688;32;35786;-85
2022/06/22 10:35:15;;;;;;;;;;;;;;;34.60;13.74;100030.91;5372194;32;45324;-84
2022/06/22 10:38:26;;;;;;;;;;;;;;;33.55;14.60;100027.88;5366325;32;35359;-82
2022/06/22 10:45:25;;;;;;;;;;;;;;;36.66;11.77;100032.47;5270876;33;34472;-83
2022/06/22 10:49:24;;;;;;;;;;;;;;;34.69;13.61;100024.09;5258903;32;33584;-86
2022/06/22 10:53:12;;;;;;;;;;;;;;;35.92;12.46;100037.47;5249879;33;36413;-95
2022/06/22 10:56:24;;;;;;;;;;;;;;;34.56;13.06;100035.97;5364130;32;35597;-84
2022/06/22 10:59:38;;;;;;;;;;;;;;;37.31;11.10;100025.91;5362090;32;37752;-88
2022/06/22 11:03:50;;;;;;;;;;;;;;;35.46;12.70;100032.66;5360245;32;35463;-86
2022/06/22 11:07:08;;;;;;;;;;;;;;;36.35;12.66;100028.97;5346260;32;36064;-91
2022/06/22 11:10:14;;;;;;;;;;;;;;;36.64;11.02;100037.31;5346550;32;44798;-85
2022/06/22 11:13:35;;;;;;;;;;;;;;;34.06;13.23;100035.97;5373017;32;44067;-80
2022/06/22 11:16:58;;;;;;;;;;;;;;;34.99;12.31;100025.03;5342526;32;33126;-82
2022/06/22 11:20:22;;;;;;;;;;;;;;;37.41;10.55;100016.00;5359929;32;34099;-82
2022/06/22 11:23:57;;;;;;;;;;;;;;;36.22;10.98;100028.38;5362010;32;35497;-80
2022/06/22 11:30:56;;;;;;;;;;;;;;;38.00;9.24;100014.88;5359370;32;36273;-82
2022/06/22 11:34:05;;;;;;;;;;;;;;;37.45;8.94;100021.00;5352925;32;35538;-84
2022/06/22 11:37:11;;;;;;;;;;;;;;;35.45;10.54;100011.88;5356574;32;44420;-79
2022/06/22 11:40:33;;;;;;;;;;;;;;;36.66;9.83;100017.94;5355214;32;33560;-81
2022/06/22 11:43:38;;;;;;;;;;;;;;;37.43;9.33;100004.81;5354948;32;35433;-83
2022/06/22 11:46:44;;;;;;;;;;;;;;;38.96;8.79;99993.53;5359505;32;45437;-79
2022/06/22 11:49:48;;;;;;;;;;;;;;;38.91;8.17;99990.75;5370079;32;34373;-78
2022/06/22 11:53:11;;;;;;;;;;;;;;;37.00;9.75;99981.47;5355027;32;35210;-86
2022/06/22 11:56:22;;;;;;;;;;;;;;;38.97;9.40;99981.47;5367426;32;45748;-88
2022/06/22 12:00:06;;;;;;;;;;;;;;;38.95;9.56;99987.22;5365172;32;34076;-90
2022/06/22 12:03:38;;;;;;;;;;;;;;;37.09;10.27;99980.00;5351354;32;35747;-79
2022/06/22 12:06:53;;;;;;;;;;;;;;;33.93;12.77;99982.38;5362223;32;35519;-83
2022/06/22 12:10:01;;;;;;;;;;;;;;;34.35;12.61;99992.72;5349876;32;34022;-83
2022/06/22 12:13:30;;;;;;;;;;;;;;;33.68;13.11;99997.84;5374790;32;37271;-85
2022/06/22 12:16:51;;;;;;;;;;;;;;;32.30;14.42;99989.91;5316242;32;34613;-85
2022/06/22 12:20:21;;;;;;;;;;;;;;;32.80;14.49;99993.00;5343329;32;36322;-84
2022/06/22 12:23:33;;;;;;;;;;;;;;;32.10;14.87;99991.00;5365060;32;37047;-95
2022/06/22 12:26:35;;;;;;;;;;;;;;;30.60;15.56;99983.78;5366731;32;34215;-83
2022/06/22 12:29:37;;;;;;;;;;;;;;;31.52;15.38;99980.66;5348966;32;44168;-80
2022/06/22 12:32:46;;;;;;;;;;;;;;;31.84;15.10;99980.94;5359286;32;35942;-82
2022/06/22 12:35:51;;;;;;;;;;;;;;;31.64;16.11;99981.72;5353050;32;33971;-74
2022/06/22 12:38:55;;;;;;;;;;;;;;;30.62;16.67;99979.84;5363721;32;35489;-81
2022/06/22 12:42:12;;;;;;;;;;;;;;;31.87;15.58;99981.34;5367728;32;42937;-78
2022/06/22 12:45:27;;;;;;;;;;;;;;;31.71;15.79;99979.84;5336150;32;36532;-77
2022/06/22 12:49:41;;;;;;;;;;;;;;;30.85;16.21;99965.16;5359471;32;32677;-78
2022/06/22 12:52:45;;;;;;;;;;;;;;;30.06;16.32;99963.56;5293940;33;34752;-88
2022/06/22 12:55:52;;;;;;;;;;;;;;;30.23;16.55;99949.75;5298467;32;36618;-79
2022/06/22 12:59:14;;;;;;;;;;;;;;;29.94;17.18;99946.16;5373921;32;35100;-79
2022/06/22 13:02:17;;;;;;;;;;;;;;;30.27;17.12;99940.19;5361036;32;44306;-77
2022/06/22 13:05:24;;;;;;;;;;;;;;;30.31;17.33;99955.87;5359496;32;33290;-84
2022/06/22 13:08:27;;;;;;;;;;;;;;;30.45;17.29;99954.06;5339087;32;34970;-79
2022/06/22 13:11:33;;;;;;;;;;;;;;;30.69;16.63;99956.31;5358862;32;36770;-75
2022/06/22 13:14:35;;;;;;;;;;;;;;;30.67;17.12;99946.69;5356543;32;35044;-78
2022/06/22 13:17:57;;;;;;;;;;;;;;;30.45;17.72;99929.66;5354258;32;38143;-79
2022/06/22 13:21:17;;;;;;;;;;;;;;;30.64;17.65;99937.06;5373541;32;35846;-76
2022/06/22 13:24:32;;;;;;;;;;;;;;;31.04;17.88;99933.72;5364769;32;35751;-75
2022/06/22 13:27:37;;;;;;;;;;;;;;;31.01;17.07;99933.09;5362909;32;37090;-76
2022/06/22 13:31:02;;;;;;;;;;;;;;;30.58;17.80;99931.63;5374159;32;43256;-79
2022/06/22 13:34:06;;;;;;;;;;;;;;;31.16;17.71;99924.78;5352736;32;34309;-77
2022/06/22 13:37:27;;;;;;;;;;;;;;;30.95;17.90;99917.63;5376127;32;43179;-77
2022/06/22 13:40:30;;;;;;;;;;;;;;;31.27;17.81;99926.09;5372137;32;34393;-81
2022/06/22 13:43:41;;;;;;;;;;;;;;;31.07;18.51;99925.19;5360756;32;34146;-81
2022/06/22 13:47:04;;;;;;;;;;;;;;;30.99;18.46;99915.34;5375388;32;43786;-81
2022/06/22 13:50:26;;;;;;;;;;;;;;;31.78;17.66;99923.69;5347677;32;34199;-81
2022/06/22 13:53:35;;;;;;;;;;;;;;;31.19;18.85;99916.22;5365774;32;34474;-81
2022/06/22 13:56:57;;;;;;;;;;;;;;;31.72;17.83;99902.75;5359109;32;44451;-81
2022/06/22 13:59:59;;;;;;;;;;;;;;;31.17;18.53;99914.75;5350475;32;35624;-76
2022/06/22 14:03:20;;;;;;;;;;;;;;;31.55;18.04;99912.34;5372789;32;35781;-76
2022/06/22 14:06:27;;;;;;;;;;;;;;;31.61;18.29;99906.06;5363486;32;34712;-75
2022/06/22 14:09:52;;;;;;;;;;;;;;;31.18;18.52;99908.31;5359670;32;34267;-74
2022/06/22 14:13:06;;;;;;;;;;;;;;;32.03;17.38;99893.97;5370983;32;35902;-81
2022/06/22 14:16:15;;;;;;;;;;;;;;;31.01;17.83;99905.12;5342580;32;44829;-77
2022/06/22 14:19:17;;;;;;;;;;;;;;;31.04;17.82;99909.28;5377012;32;34287;-79
2022/06/22 14:22:29;;;;;;;;;;;;;;;30.69;18.51;99907.50;5363809;32;34285;-78
2022/06/22 14:25:35;;;;;;;;;;;;;;;30.15;19.29;99902.81;5358918;32;35653;-83
2022/06/22 14:29:01;;;;;;;;;;;;;;;31.36;18.49;99903.13;5369524;32;44534;-80
2022/06/22 14:32:12;;;;;;;;;;;;;;;31.18;18.47;99905.59;5343426;32;37359;-78
2022/06/22 14:35:25;;;;;;;;;;;;;;;30.91;19.25;99907.38;5382407;32;45254;-85
2022/06/22 14:38:33;;;;;;;;;;;;;;;31.17;18.95;99904.75;5363747;32;36524;-86
2022/06/22 14:41:43;;;;;;;;;;;;;;;31.65;18.06;99903.78;5361507;32;34972;-83
2022/06/22 14:44:50;;;;;;;;;;;;;;;30.91;18.89;99897.34;5379978;32;44595;-81
2022/06/22 14:48:04;;;;;;;;;;;;;;;31.42;18.59;99896.88;5350678;32;36930;-81
2022/06/22 14:51:15;;;;;;;;;;;;;;;30.74;19.37;99886.03;5377002;32;36799;-89
2022/06/22 14:54:21;;;;;;;;;;;;;;;30.62;19.41;99890.34;5356502;32;33420;-90
2022/06/22 14:57:31;;;;;;;;;;;;;;;30.28;19.92;99893.09;5359490;32;34895;-89
2022/06/22 15:00:45;;;;;;;;;;;;;;;30.62;19.66;99882.19;5376734;32;36603;-89
2022/06/22 15:04:06;;;;;;;;;;;;;;;30.62;19.20;99874.06;5344779;32;34565;-81
2022/06/22 15:07:22;;;;;;;;;;;;;;;31.24;17.50;99866.81;5381754;32;44147;-82
2022/06/22 15:10:28;;;;;;;;;;;;;;;30.81;17.68;99845.38;5372273;32;36573;-82
2022/06/22 15:13:37;;;;;;;;;;;;;;;30.41;18.82;99855.22;5361375;32;34117;-89
2022/06/22 15:16:41;;;;;;;;;;;;;;;31.08;17.83;99857.13;5354437;32;44921;-89
2022/06/22 15:20:02;;;;;;;;;;;;;;;31.01;17.68;99856.28;5360246;32;35459;-89
2022/06/22 15:23:23;;;;;;;;;;;;;;;31.23;17.55;99849.66;5383356;32;35299;-82
2022/06/22 15:26:35;;;;;;;;;;;;;;;31.22;17.77;99858.81;5370585;32;33204;-88
2022/06/22 15:29:46;;;;;;;;;;;;;;;30.66;18.56;99853.66;5346082;32;44196;-82
2022/06/22 15:33:02;;;;;;;;;;;;;;;30.34;19.06;99851.63;5366324;32;34421;-82
2022/06/22 15:36:12;;;;;;;;;;;;;;;30.30;18.91;99847.66;5362347;32;34925;-81
2022/06/22 15:39:46;;;;;;;;;;;;;;;30.44;19.32;99836.66;5372842;32;44921;-81
2022/06/22 15:42:49;;;;;;;;;;;;;;;29.91;19.80;99833.63;5379949;32;36391;-88
2022/06/22 15:46:17;;;;;;;;;;;;;;;30.94;18.84;99831.84;5359054;32;36602;-80
2022/06/22 15:49:35;;;;;;;;;;;;;;;31.05;19.12;99835.84;5378709;32;35792;-89
2022/06/22 15:52:57;;;;;;;;;;;;;;;30.79;19.41;99836.62;5368913;32;44781;-81
2022/06/22 15:56:19;;;;;;;;;;;;;;;31.04;19.27;99831.44;5359988;32;33202;-87
2022/06/22 15:59:30;;;;;;;;;;;;;;;30.45;19.80;99829.34;5371747;32;33780;-81
2022/06/22 16:02:52;;;;;;;;;;;;;;;30.47;20.30;99822.72;5361755;32;37288;-79
2022/06/22 16:05:55;;;;;;;;;;;;;;;29.77;21.33;99820.22;5376410;32;35506;-87
2022/06/22 16:09:05;;;;;;;;;;;;;;;30.47;20.54;99824.59;5374459;32;36982;-88
2022/06/22 16:15:31;;;;;;;;;;;;;;;30.80;20.09;99813.88;5358044;32;33762;-81
2022/06/22 16:18:39;;;;;;;;;;;;;;;30.75;19.90;99821.78;5363867;32;36249;-81
2022/06/22 16:21:41;;;;;;;;;;;;;;;30.93;19.61;99819.31;5374357;32;44423;-87
2022/06/22 16:24:46;;;;;;;;;;;;;;;30.08;20.22;99811.66;5372084;32;34846;-88
2022/06/22 16:28:01;;;;;;;;;;;;;;;30.70;18.93;99824.25;5365832;32;34161;-88
2022/06/22 16:31:02;;;;;;;;;;;;;;;29.98;20.48;99811.16;5380410;32;37190;-85
2022/06/22 16:34:07;;;;;;;;;;;;;;;30.98;19.00;99802.44;5366443;32;34579;-90
2022/06/22 16:37:12;;;;;;;;;;;;;;;30.46;19.89;99807.47;5380521;32;44698;-90
2022/06/22 16:40:25;;;;;;;;;;;;;;;29.49;21.17;99804.75;5366594;32;35084;-81
2022/06/22 16:43:36;;;;;;;;;;;;;;;30.33;20.28;99801.16;5368323;32;34367;-88
2022/06/22 16:46:49;;;;;;;;;;;;;;;30.23;20.10;99787.16;5385714;32;45021;-90